Main page
METAR-TAF:

METAR-TAF

Airports :

Jammu Airport

Jammu, India

latitude: 32-41-21N, longitude: 74-50-15E, elevation: 314 m

Current weather observation

The report was made 58 minutes ago, at 06:30 UTC
Wind 8 kt from the Southeast
Temperature 34°C
Humidity 60%
Pressure 998 hPa
Visibility: 6000 m
Few clouds at a height of 3000 ft

METAR: VIJU 110630Z 14008KT 6000 FEW030 34/25 Q0998 NOSIG

Time: 12:58 (07:28 UTC)

Forecast

The report was made 3 hours and 58 minutes ago, at 03:30 UTC
Forecast valid from 11 at 06 UTC to 11 at 18 UTC
Wind 5 kt from the South/Southeast
Visibility: 6000 m
Few clouds at a height of 2500 ft
Temporary
from 11 at 10 UTC to 11 at 14 UTC
Wind 15 kt from the South/Southwest
Visibility: 6000 m
Few clouds at a height of 2500 ft
Scattered clouds at a height of 9000 ft

TAF: VIJU 110330Z 1106/1118 16005KT 6000 FEW025 TEMPO 1110/1114 20015KT 6000 FEW025 FEW030TCU/CB SCT090 TX41/11Z

Weather observations and forecasts of more than 4000 airports (METAR and TAF reports).

The available stations are represented by yellow and red dots on the map.

Hover mouse over dot to see the name of the station.

Then click to see weather observations and forecasts.

To change the map : click on the green buttons with a black cross to zoom in, on the green button with a dash to zoom out, or on the green arrows for adjacent maps.


METAR-TAF: